Impacts TAF Board INFO
FOR SITUATIONAL AWARENESS. NOT TO BE USED FOR FLIGHT PLANNING PURPOSES.
IDs:

KMOB - Mobile Rgnl, AL, US

Issued at 1124 UTC 20 May 2018
Updated at 1149 UTC 20 May 2018
Potential Impact None Slight Moderate High
Time<<21/00Z 21/01Z 21/02Z 21/03Z 21/04Z 21/05Z 21/06Z 21/07Z 21/08Z 21/09Z 21/10Z 21/11Z 21/12Z>>
Type PRVL PRVL PRVL PRVL PRVL PRVL PRVL PRVL PRVL PRVL PRVL PRVL
VIS >6 >6 >6 >6 >6 >6 >6 >6 >6 >6 >6 >6
CIG -- -- -- -- -- 250 250 250 250 250 250 250
Cover SCT SCT SCT SCT SCT OVC OVC OVC OVC OVC OVC OVC
FltCat VFR VFR VFR VFR VFR VFR VFR VFR VFR VFR VFR VFR
WX SHRA SHRA SHRA SHRA SHRA -- -- -- -- -- -- --
WDir 130 130 130 130 130 190 190 190 190 190 190 190
WSpd 6 6 6 6 6 4 4 4 4 4 4 4
WGst -- -- -- -- -- -- -- -- -- -- -- --

Raw TAF
KMOB 201124Z 2012/2112 VRB03KT P6SM FEW050 SCT110
  FM201500 12006KT P6SM SCT060
  FM201700 13006KT P6SM VCTS SCT035CB SCT060
  TEMPO 2019/2023 VRB15G25KT 3SM TSRA BKN040CB BKN080
  FM210000 13006KT P6SM SHRA SCT080
  FM210500 19004KT P6SM OVC250


METAR Board
Radar Display
Forecast Discussion

FOR SITUATIONAL AWARENESS. NOT TO BE USED FOR FLIGHT PLANNING PURPOSES.